Time;durP1;ratioP1;P1;durP2;ratioP2;P2;SDS_P1;SDS_P2;PMS_P1;PMS_P2;Temp;Humidity;BMP_temperature;BMP_pressure;BME280_temperature;BME280_humidity;BME280_pressure;Samples;Min_cycle;Max_cycle;Signal;HPM_P1;HPM_P2
2022/08/11 00:00:05;;;;;;;18.92;7.60;;;16.10;99.90;;;;;;5042629;28;20051;-82
2022/08/11 00:02:35;;;;;;;19.25;7.22;;;16.10;99.90;;;;;;5075422;28;20373;-83
2022/08/11 00:05:09;;;;;;;18.77;8.43;;;16.00;99.90;;;;;;5076943;28;20052;-83
2022/08/11 00:07:51;;;;;;;19.73;8.25;;;16.00;99.90;;;;;;5058861;28;20040;-80
2022/08/11 00:10:28;;;;;;;16.15;7.63;;;16.00;99.90;;;;;;5057886;28;20387;-83
2022/08/11 00:13:03;;;;;;;14.55;7.72;;;15.90;99.90;;;;;;5076194;28;20048;-82
2022/08/11 00:15:44;;;;;;;21.80;9.15;;;16.00;99.90;;;;;;5075499;28;20045;-81
2022/08/11 00:18:16;;;;;;;22.60;8.77;;;15.90;99.90;;;;;;5076023;28;20044;-81
2022/08/11 00:20:44;;;;;;;18.70;8.70;;;14.70;99.90;;;;;;5025646;28;20059;-80
2022/08/11 00:23:13;;;;;;;;;;;15.80;99.90;;;;;;5075570;28;20037;-81
2022/08/11 00:25:53;;;;;;;19.17;9.75;;;15.80;99.90;;;;;;5057804;28;20339;-82
2022/08/11 00:28:25;;;;;;;25.45;11.65;;;15.70;99.90;;;;;;5075148;28;20068;-81
2022/08/11 00:30:56;;;;;;;19.52;9.70;;;15.70;99.90;;;;;;5058796;28;20048;-81
2022/08/11 00:33:31;;;;;;;18.17;9.57;;;15.70;99.90;;;;;;5058623;28;20067;-80
2022/08/11 00:36:15;;;;;;;19.88;8.73;;;15.80;99.90;;;;;;5074725;28;20053;-80
2022/08/11 00:38:44;;;;;;;18.63;9.23;;;16.30;99.90;;;;;;5058949;28;20044;-82
2022/08/11 00:41:31;;;;;;;23.55;9.65;;;15.70;99.90;;;;;;5057403;28;20065;-82
2022/08/11 00:44:19;;;;;;;22.30;10.23;;;15.60;99.90;;;;;;5075808;28;20459;-82
2022/08/11 00:46:57;;;;;;;30.65;12.35;;;15.70;99.90;;;;;;5076046;28;20048;-80
2022/08/11 00:49:38;;;;;;;25.30;11.63;;;16.80;99.90;;;;;;5074719;28;20490;-81
2022/08/11 00:52:18;;;;;;;20.15;9.80;;;15.50;99.90;;;;;;5058031;28;20040;-83
2022/08/11 00:55:17;;;;;;;19.63;10.95;;;15.50;99.90;;;;;;5074666;28;20048;-82
2022/08/11 00:58:22;;;;;;;23.65;12.02;;;15.50;99.90;;;;;;5041437;28;20056;-82
2022/08/11 01:01:08;;;;;;;23.45;12.15;;;15.40;99.90;;;;;;5075154;28;20044;-83
2022/08/11 01:03:52;;;;;;;24.48;11.98;;;15.40;99.90;;;;;;5058446;28;20044;-82
2022/08/11 01:06:57;;;;;;;25.02;11.80;;;15.20;99.90;;;;;;5075385;28;20074;-82
2022/08/11 01:09:51;;;;;;;24.30;11.45;;;15.40;99.90;;;;;;5074251;28;20044;-80
2022/08/11 01:12:44;;;;;;;23.95;11.90;;;15.40;99.90;;;;;;5075464;28;20049;-80
2022/08/11 01:15:23;;;;;;;26.42;14.40;;;15.30;99.90;;;;;;5073932;28;20044;-81
2022/08/11 01:18:28;;;;;;;27.48;12.98;;;14.60;99.90;;;;;;5075158;28;20048;-82
2022/08/11 01:21:18;;;;;;;22.95;11.57;;;15.30;99.90;;;;;;5075196;28;20049;-82
2022/08/11 01:24:01;;;;;;;23.90;12.40;;;15.20;99.90;;;;;;5057376;28;20051;-81
2022/08/11 01:27:06;;;;;;;24.27;11.43;;;15.20;99.90;;;;;;5058116;28;20049;-82
2022/08/11 01:30:30;;;;;;;22.40;11.73;;;15.20;99.90;;;;;;5056307;28;20055;-83
2022/08/11 01:33:45;;;;;;;24.08;10.93;;;15.20;99.90;;;;;;4993925;28;20066;-82
2022/08/11 01:36:37;;;;;;;23.92;12.57;;;15.10;99.90;;;;;;4992712;28;20065;-81
2022/08/11 01:39:42;;;;;;;23.55;11.77;;;14.90;99.90;;;;;;5072906;28;20063;-82
2022/08/11 01:45:54;;;;;;;26.45;14.57;;;15.10;99.90;;;;;;5057176;28;20045;-80
2022/08/11 01:48:48;;;;;;;25.42;13.65;;;15.00;99.90;;;;;;5056060;28;20045;-83
2022/08/11 01:51:29;;;;;;;23.40;12.63;;;15.00;99.90;;;;;;5057693;28;20478;-81
2022/08/11 01:54:03;;;;;;;30.00;13.65;;;15.00;99.90;;;;;;5074928;28;20055;-80
2022/08/11 01:57:04;;;;;;;35.85;13.52;;;15.10;99.90;;;;;;5073460;28;20048;-80
2022/08/11 01:59:47;;;;;;;26.30;12.27;;;15.10;99.90;;;;;;5057254;28;20040;-82
2022/08/11 02:02:47;;;;;;;28.80;14.38;;;15.00;99.90;;;;;;5073579;28;20055;-81
2022/08/11 02:05:28;;;;;;;23.15;14.80;;;15.00;99.90;;;;;;5074338;28;20045;-81
2022/08/11 02:08:20;;;;;;;26.58;14.93;;;15.00;99.90;;;;;;5056440;28;20048;-81
2022/08/11 02:11:29;;;;;;;33.03;17.15;;;15.00;99.90;;;;;;5074522;28;20513;-81
2022/08/11 02:14:35;;;;;;;28.60;15.68;;;15.00;99.90;;;;;;5074744;28;20060;-81
2022/08/11 02:17:11;;;;;;;30.30;16.55;;;14.90;99.90;;;;;;5074414;28;20048;-81
2022/08/11 02:26:25;;;;;;;34.83;17.73;;;14.80;99.90;;;;;;5045470;28;20041;-81
2022/08/11 02:29:32;;;;;;;27.15;16.85;;;15.80;99.90;;;;;;5056239;28;20044;-82
2022/08/11 02:35:21;;;;;;;27.17;15.57;;;14.80;99.90;;;;;;5077014;28;20483;-80
2022/08/11 02:38:24;;;;;;;20.02;13.15;;;14.90;99.90;;;;;;5078334;28;20041;-84
2022/08/11 02:44:56;;;;;;;18.75;11.32;;;14.90;99.90;;;;;;5077699;28;20052;-81
2022/08/11 02:47:37;;;;;;;;;;;14.90;99.90;;;;;;5018202;28;20049;-83
2022/08/11 02:50:25;;;;;;;25.90;12.48;;;14.40;99.90;;;;;;5076855;28;19928;-81
2022/08/11 02:53:02;;;;;;;23.40;11.85;;;14.70;99.90;;;;;;5060720;28;20041;-82
2022/08/11 02:55:44;;;;;;;21.50;10.68;;;14.60;99.90;;;;;;5076949;28;20443;-82
2022/08/11 03:01:49;;;;;;;21.55;11.25;;;15.20;99.90;;;;;;5076553;28;20049;-81
2022/08/11 03:04:35;;;;;;;22.98;10.68;;;14.70;99.90;;;;;;5060809;28;20053;-81
2022/08/11 03:07:16;;;;;;;19.55;11.45;;;14.60;99.90;;;;;;5060645;28;20051;-82
2022/08/11 03:10:08;;;;;;;23.13;11.35;;;14.70;99.90;;;;;;5076384;28;20052;-84
2022/08/11 03:19:10;;;;;;;23.17;11.85;;;14.40;99.90;;;;;;5059511;28;20056;-82
2022/08/11 03:21:55;;;;;;;21.65;11.98;;;14.50;99.90;;;;;;5042534;28;20044;-80
2022/08/11 03:24:41;;;;;;;21.20;11.32;;;14.50;99.90;;;;;;5077195;28;20045;-82
2022/08/11 03:27:18;;;;;;;20.98;11.70;;;14.70;99.90;;;;;;5077442;28;20056;-82
2022/08/11 03:30:10;;;;;;;20.50;12.87;;;14.70;99.90;;;;;;5076056;28;20486;-83
2022/08/11 03:36:21;;;;;;;22.77;11.77;;;15.00;99.90;;;;;;5076131;28;20052;-81
2022/08/11 03:39:07;;;;;;;21.08;10.93;;;15.00;99.90;;;;;;5040366;28;20052;-81
2022/08/11 03:41:43;;;;;;;21.02;11.73;;;15.00;99.90;;;;;;5076569;28;20443;-81
2022/08/11 03:44:35;;;;;;;18.60;10.05;;;15.10;99.90;;;;;;5076977;28;20051;-80
2022/08/11 03:47:17;;;;;;;14.30;9.68;;;14.90;99.90;;;;;;5077206;28;20371;-81
2022/08/11 03:50:01;;;;;;;19.40;9.30;;;15.00;99.90;;;;;;5058340;28;20055;-81
2022/08/11 03:52:50;;;;;;;19.77;9.70;;;15.20;99.90;;;;;;5076832;28;20471;-83
2022/08/11 03:55:27;;;;;;;22.38;10.00;;;15.20;99.90;;;;;;5058223;28;20060;-82
2022/08/11 03:58:21;;;;;;;23.02;10.07;;;15.40;99.90;;;;;;5058979;28;20051;-83
2022/08/11 04:01:25;;;;;;;22.35;10.63;;;15.30;99.90;;;;;;5076667;28;20044;-82
2022/08/11 04:04:11;;;;;;;17.92;11.18;;;15.40;99.90;;;;;;5076610;28;20036;-81
2022/08/11 04:07:16;;;;;;;16.83;10.55;;;15.50;99.90;;;;;;5076564;28;20410;-80
2022/08/11 04:09:59;;;;;;;15.95;9.45;;;15.60;99.90;;;;;;5075181;28;20056;-82
2022/08/11 04:12:51;;;;;;;18.45;10.15;;;15.80;99.90;;;;;;5076127;28;20052;-82
2022/08/11 04:16:01;;;;;;;14.13;8.93;;;15.70;99.90;;;;;;5075502;28;20045;-82
2022/08/11 04:18:49;;;;;;;16.92;9.43;;;15.90;99.90;;;;;;5037814;28;20475;-81
2022/08/11 04:21:35;;;;;;;17.00;9.50;;;15.80;99.90;;;;;;5075390;28;20056;-81
2022/08/11 04:24:28;;;;;;;14.52;9.23;;;15.90;99.90;;;;;;5076221;28;20467;-80
2022/08/11 04:27:39;;;;;;;15.55;8.73;;;15.90;99.90;;;;;;5059987;28;20041;-82
2022/08/11 04:30:07;;;;;;;16.55;8.90;;;16.00;99.90;;;;;;5058513;28;20041;-83
2022/08/11 04:33:33;;;;;;;17.67;9.23;;;16.00;99.90;;;;;;5075979;28;20051;-84
2022/08/11 04:39:33;;;;;;;19.45;8.95;;;16.10;99.90;;;;;;5058370;28;20052;-84
2022/08/11 04:45:36;;;;;;;15.57;8.90;;;16.30;99.90;;;;;;5058106;28;20049;-81
2022/08/11 05:02:09;;;;;;;15.52;8.38;;;16.80;99.90;;;;;;4989357;28;20509;-82
2022/08/11 05:05:30;;;;;;;30.67;12.32;;;16.80;99.90;;;;;;5058668;28;20052;-80
2022/08/11 05:08:35;;;;;;;32.50;13.82;;;17.40;99.90;;;;;;5056901;28;20055;-81
2022/08/11 05:11:40;;;;;;;33.65;13.77;;;17.00;99.90;;;;;;5075101;28;20072;-81
2022/08/11 05:34:53;;;;;;;87.15;30.13;;;18.00;99.90;;;;;;5073630;28;20059;-81
2022/08/11 05:37:32;;;;;;;84.40;29.00;;;17.80;99.90;;;;;;5074852;28;20486;-81
2022/08/11 05:57:36;;;;;;;106.15;30.70;;;20.20;99.90;;;;;;5074886;28;20045;-83
2022/08/11 06:00:18;;;;;;;95.65;29.77;;;18.50;99.90;;;;;;5057228;28;20045;-82
2022/08/11 06:02:50;;;;;;;90.00;27.83;;;20.40;99.90;;;;;;5055632;28;20049;-81
2022/08/11 06:05:33;;;;;;;70.82;27.77;;;18.70;99.90;;;;;;5057569;28;20040;-83
2022/08/11 06:08:06;;;;;;;71.88;26.58;;;18.60;99.90;;;;;;5058707;28;20471;-83
2022/08/11 06:10:42;;;;;;;75.07;26.40;;;19.20;99.90;;;;;;5061216;28;20048;-85
2022/08/11 06:13:16;;;;;;;69.18;28.42;;;18.80;99.90;;;;;;5060638;28;20055;-83
2022/08/11 06:15:48;;;;;;;68.05;26.00;;;19.00;99.90;;;;;;5076925;28;20044;-85
2022/08/11 06:18:19;;;;;;;78.28;29.00;;;17.20;99.90;;;;;;5061507;28;20048;-84
2022/08/11 06:20:59;;;;;;;73.43;27.15;;;19.00;99.90;;;;;;5061347;28;20360;-85
2022/08/11 06:23:32;;;;;;;76.78;28.58;;;19.40;99.90;;;;;;5060376;28;20059;-83
2022/08/11 06:26:14;;;;;;;83.80;28.67;;;19.80;99.90;;;;;;5061162;28;20044;-83
2022/08/11 06:28:45;;;;;;;78.57;27.30;;;20.40;99.90;;;;;;5077347;28;20047;-84
2022/08/11 06:31:17;;;;;;;72.60;28.75;;;19.50;99.90;;;;;;5078155;28;20049;-84
2022/08/11 06:34:11;;;;;;;85.43;28.90;;;19.60;99.90;;;;;;5061220;28;20064;-84
2022/08/11 06:37:17;;;;;;;90.28;29.45;;;19.10;99.90;;;;;;5078298;28;20451;-84
2022/08/11 06:39:54;;;;;;;97.65;30.40;;;19.80;99.90;;;;;;5041257;28;20048;-83
2022/08/11 06:42:44;;;;;;;100.97;32.38;;;19.90;99.90;;;;;;5077314;28;20071;-84
2022/08/11 06:45:34;;;;;;;90.75;29.75;;;20.30;99.90;;;;;;5060769;28;20047;-83
2022/08/11 06:48:08;;;;;;;88.78;30.23;;;19.50;99.90;;;;;;5059190;28;20049;-84
2022/08/11 06:53:33;;;;;;;83.00;29.83;;;19.80;99.90;;;;;;5060708;28;20067;-88
2022/08/11 07:02:07;;;;;;;111.20;30.02;;;19.70;99.90;;;;;;5078149;28;20048;-80
2022/08/11 07:04:43;;;;;;;90.82;35.08;;;19.80;99.90;;;;;;5059779;28;20060;-79
2022/08/11 07:17:00;;;;;;;74.80;31.30;;;20.10;99.90;;;;;;5077146;28;20047;-78
2022/08/11 07:31:13;;;;;;;57.22;24.02;;;20.60;99.90;;;;;;5076884;28;20459;-80
2022/08/11 07:33:52;;;;;;;55.38;25.55;;;20.70;99.90;;;;;;5076800;28;20646;-80
2022/08/11 07:36:55;;;;;;;53.47;24.00;;;20.90;99.90;;;;;;5074062;28;20988;-80
2022/08/11 07:39:39;;;;;;;63.75;26.98;;;23.90;99.90;;;;;;5075625;28;20048;-80
2022/08/11 07:42:29;;;;;;;58.60;25.48;;;22.00;99.90;;;;;;5037601;28;20059;-79
2022/08/11 07:53:36;;;;;;;54.70;26.13;;;20.40;99.90;;;;;;5075103;28;20051;-79
2022/08/11 07:56:25;;;;;;;57.90;27.35;;;22.00;99.90;;;;;;5057597;28;20490;-79
2022/08/11 08:19:14;;;;;;;65.97;32.05;;;20.40;99.90;;;;;;5076144;28;20048;-78
2022/08/11 08:22:14;;;;;;;70.40;31.48;;;20.20;99.90;;;;;;5075292;28;20063;-76
2022/08/11 08:25:02;;;;;;;66.90;31.02;;;20.20;99.90;;;;;;5058815;28;20045;-76
2022/08/11 08:27:35;;;;;;;67.57;30.33;;;19.90;99.90;;;;;;5057591;28;20052;-79
2022/08/11 08:32:57;;;;;;;67.75;28.83;;;20.00;99.90;;;;;;5042334;28;20048;-80
2022/08/11 08:35:29;;;;;;;57.60;25.77;;;19.90;99.90;;;;;;5074939;28;20052;-81
2022/08/11 08:38:00;;;;;;;58.55;26.67;;;19.90;99.90;;;;;;5076400;28;20047;-77
2022/08/11 08:40:28;;;;;;;59.13;25.08;;;20.60;99.90;;;;;;5075543;28;20051;-75
2022/08/11 08:43:00;;;;;;;47.35;22.65;;;20.30;99.90;;;;;;5074794;28;20040;-79
2022/08/11 08:45:34;;;;;;;52.60;23.88;;;20.30;99.90;;;;;;5075840;28;20045;-77
2022/08/11 08:48:15;;;;;;;51.35;23.63;;;20.70;99.90;;;;;;5075192;28;20455;-75
2022/08/11 08:53:45;;;;;;;50.13;20.77;;;20.60;99.90;;;;;;5061588;28;20462;-75
2022/08/11 08:56:37;;;;;;;;;;;;;;;;;;;;;
2022/08/11 08:59:05;;;;;;;52.17;21.33;;;21.90;99.90;;;;;;5076081;28;20041;-77
2022/08/11 09:01:44;;;;;;;46.42;18.88;;;21.00;99.90;;;;;;5074067;28;20081;-80
2022/08/11 09:04:21;;;;;;;43.47;20.95;;;22.80;99.90;;;;;;5058085;28;20056;-78
2022/08/11 09:06:49;;;;;;;42.60;19.17;;;22.30;99.90;;;;;;5058223;28;20063;-83
2022/08/11 09:09:21;;;;;;;40.78;19.48;;;21.80;99.90;;;;;;5074640;28;20055;-82
2022/08/11 09:11:55;;;;;;;39.55;18.90;;;21.50;99.90;;;;;;5075353;28;20049;-79
2022/08/11 09:14:59;;;;;;;36.22;17.05;;;21.80;99.90;;;;;;5074527;28;20044;-78
2022/08/11 09:17:22;;;;;;;33.22;15.45;;;21.80;99.90;;;;;;5074027;28;20056;-79
2022/08/11 09:20:15;;;;;;;33.05;14.75;;;24.00;99.90;;;;;;5058380;28;20455;-76
2022/08/11 09:28:46;;;;;;;28.55;12.25;;;22.10;99.90;;;;;;5056463;28;20037;-75
2022/08/11 09:31:14;;;;;;;26.00;12.00;;;20.80;99.90;;;;;;5057377;28;20048;-75
2022/08/11 09:33:44;;;;;;;27.30;11.57;;;22.30;99.90;;;;;;5057385;28;20048;-75
2022/08/11 09:41:49;;;;;;;19.25;9.18;;;22.60;99.90;;;;;;5073566;28;20048;-77
2022/08/11 09:44:51;;;;;;;27.23;10.18;;;22.80;99.50;;;;;;5075179;28;20043;-75
2022/08/11 09:47:25;;;;;;;33.80;9.57;;;22.90;98.60;;;;;;5074622;28;20044;-77
2022/08/11 09:49:58;;;;;;;23.42;9.45;;;23.10;97.80;;;;;;5039822;28;20040;-75
2022/08/11 09:52:31;;;;;;;19.83;7.35;;;23.30;96.80;;;;;;5075085;28;20044;-78
2022/08/11 09:55:00;;;;;;;21.75;7.70;;;23.40;96.20;;;;;;5056342;28;20471;-77
2022/08/11 10:00:15;;;;;;;17.60;6.55;;;23.60;94.40;;;;;;5074458;28;20071;-77
2022/08/11 10:02:48;;;;;;;13.93;5.88;;;23.80;93.70;;;;;;5056268;28;20044;-78
2022/08/11 10:08:27;;;;;;;16.83;5.25;;;23.90;92.10;;;;;;4993099;28;20046;-80
2022/08/11 10:10:56;;;;;;;14.23;4.72;;;24.00;91.20;;;;;;5061543;28;20060;-78
2022/08/11 10:15:32;;;;;;;18.80;5.60;;;24.40;91.20;;;;;;5074750;28;20055;-80
2022/08/11 10:16:44;;;;;;;18.55;4.65;;;24.30;90.20;;;;;;5073269;28;20451;-81
2022/08/11 10:19:18;;;;;;;11.88;4.85;;;24.40;90.60;;;;;;5056401;28;20060;-79
2022/08/11 10:27:32;;;;;;;10.35;3.20;;;24.80;86.90;;;;;;5056655;28;20052;-82
2022/08/11 10:36:06;;;;;;;14.23;3.67;;;25.20;84.10;;;;;;5073304;28;20040;-79
2022/08/11 10:38:51;;;;;;;13.02;3.85;;;25.30;83.30;;;;;;5074509;28;20451;-80
2022/08/11 10:44:26;;;;;;;13.80;3.70;;;25.60;81.80;;;;;;5057212;28;20057;-75
2022/08/11 10:49:40;;;;;;;13.77;3.25;;;25.80;77.30;;;;;;5073433;28;19926;-74
2022/08/11 11:00:33;;;;;;;10.25;2.70;;;24.80;75.50;;;;;;5060680;28;20059;-76
2022/08/11 11:03:03;;;;;;;8.05;2.60;;;26.30;74.00;;;;;;5076618;28;20052;-77
2022/08/11 11:05:52;;;;;;;11.55;2.45;;;26.40;72.90;;;;;;5059812;28;20364;-78
2022/08/11 11:08:52;;;;;;;5.30;2.10;;;26.60;71.90;;;;;;5076702;28;20047;-80
2022/08/11 11:18:08;;;;;;;4.95;2.05;;;27.20;69.70;;;;;;5003404;28;20064;-78
2022/08/11 11:20:52;;;;;;;11.75;2.20;;;27.00;69.00;;;;;;5019453;28;20053;-81
2022/08/11 11:23:46;;;;;;;7.90;2.28;;;27.10;67.30;;;;;;5018338;28;20527;-81
2022/08/11 11:26:37;;;;;;;9.10;2.13;;;27.20;68.30;;;;;;5006431;28;20494;-78
2022/08/11 11:29:43;;;;;;;8.52;1.98;;;27.70;66.60;;;;;;5018327;28;20046;-77
2022/08/11 11:32:32;;;;;;;9.50;2.17;;;27.40;63.20;;;;;;5035737;28;20057;-78
2022/08/11 11:35:14;;;;;;;7.55;2.05;;;27.50;64.60;;;;;;5018335;28;20049;-81
2022/08/11 11:37:45;;;;;;;8.02;1.83;;;27.50;65.20;;;;;;5019099;28;20058;-76
2022/08/11 11:40:32;;;;;;;12.02;2.08;;;27.70;65.20;;;;;;5019054;28;20476;-79
2022/08/11 11:43:01;;;;;;;9.32;2.03;;;27.70;65.50;;;;;;5033287;28;20468;-78
2022/08/11 11:45:29;;;;;;;7.43;1.92;;;27.70;65.40;;;;;;5035642;28;20046;-78
2022/08/11 11:47:58;;;;;;;6.63;1.52;;;27.80;65.10;;;;;;5017525;28;20060;-77
2022/08/11 11:50:37;;;;;;;5.25;2.00;;;28.00;64.10;;;;;;5035499;28;20050;-76
2022/08/11 11:53:08;;;;;;;8.27;1.55;;;28.00;63.00;;;;;;5073027;28;20056;-76
2022/08/11 11:55:36;;;;;;;6.80;1.70;;;28.40;63.20;;;;;;5076068;28;20053;-77
2022/08/11 12:03:40;;;;;;;7.47;1.70;;;28.40;60.90;;;;;;5077195;28;20044;-76
2022/08/11 12:06:12;;;;;;;7.20;2.10;;;28.50;60.30;;;;;;5075589;28;20379;-76
2022/08/11 12:08:41;;;;;;;4.38;1.63;;;28.60;60.30;;;;;;5075464;28;20367;-76
2022/08/11 12:14:04;;;;;;;5.03;1.70;;;28.70;60.30;;;;;;5039690;28;20060;-79
2022/08/11 12:16:40;;;;;;;5.97;1.50;;;28.80;59.10;;;;;;5058147;28;20051;-80
2022/08/11 12:19:11;;;;;;;5.50;1.38;;;28.80;58.70;;;;;;5075982;28;20053;-80
2022/08/11 12:27:21;;;;;;;7.68;1.60;;;28.90;60.20;;;;;;5058352;28;20083;-78
2022/08/11 12:29:58;;;;;;;6.20;1.55;;;29.00;59.90;;;;;;5074868;28;20459;-78
2022/08/11 12:32:31;;;;;;;5.47;1.55;;;30.30;59.50;;;;;;5057886;28;20048;-78
2022/08/11 12:35:00;;;;;;;5.72;1.65;;;28.90;58.40;;;;;;5054593;28;20048;-78
2022/08/11 12:37:38;;;;;;;5.43;1.58;;;29.00;58.20;;;;;;5058442;28;20071;-77
2022/08/11 12:46:15;;;;;;;6.28;1.38;;;29.10;57.50;;;;;;5075479;28;20075;-79
2022/08/11 12:51:58;;;;;;;5.38;1.55;;;29.30;57.00;;;;;;5075541;28;20382;-81
2022/08/11 12:54:57;;;;;;;5.13;1.50;;;29.20;57.40;;;;;;5074328;28;20098;-76
2022/08/11 13:06:02;;;;;;;4.90;1.33;;;29.30;54.50;;;;;;5057515;28;20067;-78
2022/08/11 13:08:34;;;;;;;7.93;1.60;;;29.40;54.10;;;;;;5074124;28;20041;-77
2022/08/11 13:13:51;;;;;;;;;;;29.40;55.10;;;;;;5075390;28;20067;-78
2022/08/11 13:16:30;;;;;;;5.85;1.42;;;30.10;54.40;;;;;;5073405;28;19932;-78
2022/08/11 13:18:59;;;;;;;4.63;1.50;;;29.70;54.70;;;;;;5074925;28;20056;-78
2022/08/11 13:21:30;;;;;;;5.47;1.60;;;29.70;55.30;;;;;;5072890;28;20060;-78
2022/08/11 13:23:59;;;;;;;4.55;1.27;;;29.80;55.50;;;;;;5057603;28;20040;-75
2022/08/11 13:26:32;;;;;;;3.55;1.15;;;29.80;54.80;;;;;;5074677;28;20045;-76
2022/08/11 13:29:23;;;;;;;3.60;1.30;;;29.80;54.00;;;;;;5058254;28;20036;-73
2022/08/11 13:31:54;;;;;;;6.68;1.50;;;29.90;53.00;;;;;;5074735;28;20375;-74
2022/08/11 13:34:25;;;;;;;8.02;1.60;;;29.90;53.70;;;;;;5074161;28;20383;-76
2022/08/11 13:36:59;;;;;;;7.75;1.40;;;30.00;53.30;;;;;;5075052;28;20089;-77
2022/08/11 13:39:30;;;;;;;8.02;1.48;;;30.00;53.00;;;;;;5057174;28;20063;-77
2022/08/11 13:42:01;;;;;;;4.40;1.50;;;30.00;53.30;;;;;;5074123;28;20351;-79
2022/08/11 13:44:32;;;;;;;5.35;1.30;;;30.10;53.00;;;;;;5058242;28;20045;-75
2022/08/11 13:47:02;;;;;;;4.72;1.40;;;30.20;53.00;;;;;;5075138;28;20041;-78
2022/08/11 13:49:35;;;;;;;5.47;1.50;;;30.40;52.80;;;;;;5073815;28;20048;-75
2022/08/11 13:52:12;;;;;;;6.35;1.40;;;30.70;52.30;;;;;;5054038;28;20056;-77
2022/08/11 13:54:41;;;;;;;9.10;1.40;;;31.30;51.00;;;;;;5073718;28;20041;-79
2022/08/11 13:57:11;;;;;;;7.55;1.30;;;32.00;50.70;;;;;;5072994;28;20048;-73
2022/08/11 14:00:08;;;;;;;4.45;1.50;;;32.70;49.50;;;;;;5057015;28;20055;-75
2022/08/11 14:02:54;;;;;;;7.28;1.50;;;33.60;49.50;;;;;;5058729;28;20047;-73
2022/08/11 14:05:38;;;;;;;3.63;1.25;;;34.30;48.80;;;;;;5074702;28;20040;-74
2022/08/11 14:08:17;;;;;;;2.80;1.10;;;34.90;46.70;;;;;;5074273;28;20051;-76
2022/08/11 14:14:19;;;;;;;7.90;1.42;;;36.20;46.60;;;;;;5056931;28;20379;-76
2022/08/11 14:16:49;;;;;;;3.17;1.48;;;36.60;45.20;;;;;;5074446;28;20486;-75
2022/08/11 14:19:22;;;;;;;5.47;1.30;;;37.00;45.30;;;;;;5074335;28;20064;-75
2022/08/11 14:22:07;;;;;;;5.95;1.23;;;37.10;44.00;;;;;;5073358;28;20051;-75
2022/08/11 14:24:41;;;;;;;4.68;1.42;;;37.40;45.00;;;;;;5056531;28;20045;-79
2022/08/11 14:27:11;;;;;;;5.93;1.35;;;37.60;43.60;;;;;;5073866;28;20045;-76
2022/08/11 14:30:00;;;;;;;5.05;1.42;;;37.70;44.80;;;;;;5076497;28;20040;-79
2022/08/11 14:32:27;;;;;;;3.17;1.20;;;37.90;44.90;;;;;;5078608;28;20045;-76
2022/08/11 14:34:57;;;;;;;4.72;1.40;;;38.60;45.50;;;;;;5077530;28;20055;-75
2022/08/11 14:37:27;;;;;;;3.00;1.10;;;38.20;43.80;;;;;;5078393;28;20044;-74
2022/08/11 14:47:03;;;;;;;4.72;1.60;;;38.20;43.80;;;;;;5060309;28;20045;-74
2022/08/11 14:48:26;;;;;;;6.15;1.23;;;38.70;43.50;;;;;;5077261;28;20341;-78
2022/08/11 14:50:54;;;;;;;6.53;1.30;;;38.80;42.80;;;;;;5078187;28;20048;-79
2022/08/11 14:53:23;;;;;;;5.50;1.40;;;39.00;42.30;;;;;;5060120;28;20048;-76
2022/08/11 14:58:41;;;;;;;4.78;1.20;;;38.90;42.20;;;;;;5078093;28;20107;-76
2022/08/11 15:03:09;;;;;;;6.22;1.58;;;38.80;42.40;;;;;;5043873;28;20059;-77
2022/08/11 15:03:58;;;;;;;5.30;1.30;;;38.80;43.00;;;;;;5077730;28;20064;-77
2022/08/11 15:06:46;;;;;;;8.25;1.40;;;38.80;42.50;;;;;;5078033;28;20056;-78
2022/08/11 15:09:15;;;;;;;4.25;1.50;;;39.00;42.20;;;;;;5059910;28;20055;-77
2022/08/11 15:17:23;;;;;;;4.63;1.27;;;38.20;41.60;;;;;;5075440;28;20047;-76
2022/08/11 15:25:49;;;;;;;6.22;1.35;;;39.30;42.00;;;;;;5058041;28;20053;-77
2022/08/11 15:46:01;;;;;;;6.80;1.60;;;39.00;40.80;;;;;;5039530;28;20046;-77
2022/08/11 15:48:39;;;;;;;7.00;1.65;;;39.00;41.00;;;;;;5038995;28;20060;-77
2022/08/11 15:51:34;;;;;;;4.80;1.50;;;38.80;41.00;;;;;;5057530;28;20041;-76
2022/08/11 15:54:07;;;;;;;3.92;1.60;;;38.20;40.60;;;;;;5057022;28;20390;-77
2022/08/11 15:56:42;;;;;;;7.55;1.63;;;37.10;41.50;;;;;;5056140;28;20375;-77
2022/08/11 16:05:04;;;;;;;5.70;1.42;;;35.10;43.80;;;;;;5056992;28;20044;-76
2022/08/11 16:07:34;;;;;;;5.97;1.60;;;34.50;44.40;;;;;;5057283;28;20431;-79
2022/08/11 16:10:20;;;;;;;3.95;1.70;;;34.00;45.40;;;;;;5038719;28;20049;-75
2022/08/11 16:18:39;;;;;;;3.63;1.70;;;32.50;47.30;;;;;;5067332;28;20056;-75
2022/08/11 16:21:25;;;;;;;5.20;1.80;;;32.00;48.50;;;;;;5075849;28;20068;-74
2022/08/11 16:24:06;;;;;;;4.30;1.60;;;31.50;48.60;;;;;;5073402;28;20045;-76
2022/08/11 16:26:40;;;;;;;7.35;1.80;;;31.40;50.30;;;;;;5059164;28;20044;-76
2022/08/11 16:29:30;;;;;;;5.78;1.63;;;31.40;50.70;;;;;;5075178;28;20040;-76
2022/08/11 16:32:17;;;;;;;3.50;1.73;;;30.70;50.40;;;;;;5074882;28;20045;-76
2022/08/11 16:40:33;;;;;;;4.57;1.80;;;29.90;51.70;;;;;;5075732;28;20485;-76
2022/08/11 16:48:42;;;;;;;7.05;1.70;;;29.60;53.40;;;;;;5057237;28;20115;-77
2022/08/11 16:51:14;;;;;;;5.65;1.48;;;29.30;54.10;;;;;;5074938;28;20049;-78
2022/08/11 16:53:44;;;;;;;6.07;1.50;;;29.20;56.60;;;;;;5041423;28;20063;-78
2022/08/11 16:56:49;;;;;;;6.82;1.60;;;29.10;55.90;;;;;;5057212;28;20063;-77
2022/08/11 16:59:28;;;;;;;4.13;1.55;;;29.70;54.70;;;;;;5075404;28;20428;-77
2022/08/11 17:02:05;;;;;;;5.55;1.73;;;28.80;53.70;;;;;;5074528;28;20475;-78
2022/08/11 17:13:32;;;;;;;4.47;1.70;;;28.40;56.70;;;;;;5075168;28;20059;-72
2022/08/11 17:16:06;;;;;;;4.55;1.73;;;28.30;57.00;;;;;;5074060;28;20372;-76
2022/08/11 17:18:55;;;;;;;8.63;1.70;;;28.30;57.50;;;;;;5074802;28;20048;-76
2022/08/11 17:21:28;;;;;;;6.35;1.80;;;28.20;56.30;;;;;;5074119;28;20052;-72
2022/08/11 17:24:13;;;;;;;6.53;1.67;;;28.20;56.50;;;;;;5074778;28;20059;-72
2022/08/11 17:26:58;;;;;;;7.93;1.63;;;28.10;57.90;;;;;;5057580;28;20504;-73
2022/08/11 17:29:41;;;;;;;2.58;1.50;;;28.10;58.20;;;;;;5073847;28;20040;-71
2022/08/11 17:35:37;;;;;;;7.55;1.60;;;28.00;57.60;;;;;;5073768;28;20371;-76
2022/08/11 17:38:20;;;;;;;4.55;1.60;;;28.00;58.40;;;;;;5074675;28;20037;-71
2022/08/11 17:49:38;;;;;;;6.45;1.60;;;27.80;59.30;;;;;;5073688;28;20573;-71
2022/08/11 18:00:55;;;;;;;5.07;1.60;;;27.50;59.10;;;;;;5057037;28;20048;-72
2022/08/11 18:03:42;;;;;;;8.63;1.55;;;27.50;60.30;;;;;;5055990;28;20047;-72
2022/08/11 18:06:28;;;;;;;7.05;1.55;;;27.40;60.20;;;;;;5074397;28;20332;-72
